createdAt,value
2023-04-15T00:00:50.413Z,4.4700
2023-04-15T00:01:51.118Z,4.4907
2023-04-15T00:02:52.215Z,4.4530
2023-04-15T00:03:53.401Z,4.3661
2023-04-15T00:04:53.374Z,4.3379
2023-04-15T00:05:54.310Z,4.3171
2023-04-15T00:06:55.022Z,4.2457
2023-04-15T00:07:55.460Z,4.2022
2023-04-15T00:08:56.122Z,4.2031
2023-04-15T00:09:56.625Z,4.1291
2023-04-15T00:10:57.217Z,4.1793
2023-04-15T00:11:57.851Z,4.1450
2023-04-15T00:12:58.424Z,4.0729
2023-04-15T00:13:59.129Z,4.0696
2023-04-15T00:14:59.833Z,4.0595
2023-04-15T00:16:00.489Z,4.0508
2023-04-15T00:17:01.574Z,4.0231
2023-04-15T00:18:02.402Z,4.0082
2023-04-15T00:19:03.297Z,4.0155
2023-04-15T00:20:04.213Z,3.9612
2023-04-15T00:21:04.689Z,3.9478
2023-04-15T00:22:05.365Z,3.8561
2023-04-15T00:23:06.103Z,3.8579
2023-04-15T00:24:06.603Z,3.8858
2023-04-15T00:25:07.451Z,3.9079
2023-04-15T00:26:08.432Z,3.9961
2023-04-15T00:27:09.080Z,3.9230
2023-04-15T00:28:09.979Z,3.9265
2023-04-15T00:29:10.859Z,3.9181
2023-04-15T00:30:11.408Z,3.9084
2023-04-15T00:31:12.724Z,3.9327
2023-04-15T00:32:13.379Z,3.9332
2023-04-15T00:33:14.113Z,3.9392
2023-04-15T00:34:14.723Z,3.9449
2023-04-15T00:35:15.206Z,3.9338
2023-04-15T00:36:16.003Z,3.9456
2023-04-15T00:37:16.497Z,3.9424
2023-04-15T00:38:17.114Z,3.9377
2023-04-15T00:39:17.894Z,3.9218
2023-04-15T00:40:18.521Z,3.9183
2023-04-15T00:41:19.313Z,3.8639
2023-04-15T00:42:19.997Z,3.8950
2023-04-15T00:43:20.583Z,3.8950
2023-04-15T00:44:21.197Z,3.9012
2023-04-15T00:45:21.691Z,3.9397
2023-04-15T00:46:22.840Z,3.9198
2023-04-15T00:47:23.613Z,3.8802
2023-04-15T00:48:24.412Z,3.8642
2023-04-15T00:49:25.170Z,3.9128
2023-04-15T00:50:25.842Z,3.9440
2023-04-15T00:51:26.523Z,3.9375
2023-04-15T00:52:27.291Z,3.9451
2023-04-15T00:53:27.885Z,3.9514
2023-04-15T00:54:28.658Z,3.9726
2023-04-15T00:55:29.291Z,3.9901
2023-04-15T00:56:29.870Z,3.9928
2023-04-15T00:57:30.749Z,3.9991
2023-04-15T00:58:31.348Z,4.0424
2023-04-15T00:59:32.126Z,4.0314
2023-04-15T01:00:32.656Z,4.0538
2023-04-15T01:01:33.288Z,4.1039
2023-04-15T01:02:33.748Z,4.1259
2023-04-15T01:03:35.364Z,4.1584
2023-04-15T01:04:35.348Z,4.1952
2023-04-15T01:05:36.398Z,4.2334
2023-04-15T01:06:37.019Z,4.3216
2023-04-15T01:07:37.959Z,4.3227
2023-04-15T01:08:39.037Z,4.3517
2023-04-15T01:09:39.639Z,4.4046
2023-04-15T01:10:40.621Z,4.4473
2023-04-15T01:11:41.230Z,4.4789
2023-04-15T01:12:41.952Z,4.4924
2023-04-15T01:13:42.726Z,4.5016
2023-04-15T01:14:43.626Z,4.5422
2023-04-15T01:15:44.328Z,4.5682
2023-04-15T01:16:45.510Z,4.5585
2023-04-15T01:17:46.167Z,4.5712
2023-04-15T01:18:46.188Z,4.5771
2023-04-15T01:19:46.323Z,4.6126
2023-04-15T01:20:47.099Z,4.6437
2023-04-15T01:21:47.772Z,4.6479
2023-04-15T01:22:48.271Z,4.6619
2023-04-15T01:23:48.916Z,4.6820
2023-04-15T01:24:49.670Z,4.7120
2023-04-15T01:25:50.174Z,4.7177
2023-04-15T01:26:51.055Z,4.7275
2023-04-15T01:27:52.036Z,4.7261
2023-04-15T01:28:52.639Z,4.7391
2023-04-15T01:29:53.375Z,4.7477
2023-04-15T01:30:53.997Z,4.7540
2023-04-15T01:31:55.066Z,4.7665
2023-04-15T01:32:55.590Z,4.7876
2023-04-15T01:33:56.258Z,4.7794
2023-04-15T01:34:57.370Z,4.7603
2023-04-15T01:35:58.188Z,4.7705
2023-04-15T01:36:58.824Z,4.7837
2023-04-15T01:37:59.663Z,4.8218
2023-04-15T01:39:00.347Z,4.8194
2023-04-15T01:40:00.542Z,4.8204
2023-04-15T01:41:01.261Z,4.8381
2023-04-15T01:42:01.930Z,4.8512
2023-04-15T01:43:02.762Z,4.8595
2023-04-15T01:44:03.528Z,4.8659
2023-04-15T01:45:04.079Z,4.8746
2023-04-15T01:46:04.805Z,4.8888
2023-04-15T01:47:06.128Z,4.9124
2023-04-15T01:48:07.192Z,4.9146
2023-04-15T01:49:08.486Z,4.9555
2023-04-15T01:50:09.114Z,4.9738
2023-04-15T01:51:09.814Z,4.9542
2023-04-15T01:52:10.532Z,4.9750
2023-04-15T01:53:11.423Z,4.9953
2023-04-15T01:54:11.899Z,5.0099
2023-04-15T01:55:12.544Z,5.0140
2023-04-15T01:56:14.717Z,5.0150
2023-04-15T01:57:13.651Z,5.0142
2023-04-15T01:58:14.504Z,5.0051
2023-04-15T01:59:14.970Z,5.0135
2023-04-15T02:00:15.668Z,5.0129
2023-04-15T02:01:16.773Z,5.0190
2023-04-15T02:02:17.941Z,5.0220
2023-04-15T02:03:18.479Z,5.0353
2023-04-15T02:04:19.449Z,5.0425
2023-04-15T02:05:20.135Z,5.0414
2023-04-15T02:06:20.799Z,5.0320
2023-04-15T02:07:21.288Z,5.0441
2023-04-15T02:08:21.952Z,5.0474
2023-04-15T02:09:23.049Z,5.0457
2023-04-15T02:10:23.517Z,5.0596
2023-04-15T02:11:24.127Z,5.0545
2023-04-15T02:12:24.546Z,5.0661
2023-04-15T02:13:25.165Z,5.0714
2023-04-15T02:14:26.087Z,5.0608
2023-04-15T02:15:26.602Z,5.0288
2023-04-15T02:16:27.596Z,5.0187
2023-04-15T02:17:28.721Z,5.0300
2023-04-15T02:18:29.599Z,5.0259
2023-04-15T02:19:30.452Z,5.0304
2023-04-15T02:20:31.178Z,5.0442
2023-04-15T02:21:31.819Z,5.0382
2023-04-15T02:22:32.765Z,5.0313
2023-04-15T02:23:33.208Z,5.0277
2023-04-15T02:24:33.937Z,5.0079
2023-04-15T02:25:34.559Z,4.9912
2023-04-15T02:26:34.870Z,4.9910
2023-04-15T02:27:35.585Z,5.0041
2023-04-15T02:28:36.091Z,4.9998
2023-04-15T02:29:36.868Z,4.9579
2023-04-15T02:30:37.679Z,4.9333
2023-04-15T02:31:38.206Z,4.9229
2023-04-15T02:32:39.220Z,4.9077
2023-04-15T02:33:40.069Z,4.9346
2023-04-15T02:34:40.600Z,4.9606
2023-04-15T02:35:41.498Z,4.9914
2023-04-15T02:36:41.887Z,4.9674
2023-04-15T02:37:42.672Z,4.9495
2023-04-15T02:38:43.339Z,4.9716
2023-04-15T02:39:43.865Z,5.0114
2023-04-15T02:40:44.669Z,5.0097
2023-04-15T02:41:45.398Z,5.0070
2023-04-15T02:42:45.948Z,5.0000
2023-04-15T02:43:46.624Z,4.9794
2023-04-15T02:44:47.131Z,4.9433
2023-04-15T02:45:47.867Z,4.9203
2023-04-15T02:46:48.912Z,4.9410
2023-04-15T02:47:49.519Z,4.9480
2023-04-15T02:48:50.185Z,4.9498
2023-04-15T02:49:50.977Z,4.9691
2023-04-15T02:50:52.007Z,4.9986
2023-04-15T02:51:51.863Z,5.0259
2023-04-15T02:52:52.334Z,5.0118
2023-04-15T02:53:52.981Z,5.0084
2023-04-15T02:54:53.762Z,5.0373
2023-04-15T02:55:54.467Z,5.0575
2023-04-15T02:56:55.278Z,5.0437
2023-04-15T02:57:56.256Z,5.0472
2023-04-15T02:58:56.703Z,5.0669
2023-04-15T02:59:57.670Z,5.0754
2023-04-15T03:00:58.289Z,5.0875
2023-04-15T03:01:59.419Z,5.0807
2023-04-15T03:02:59.633Z,5.0812
2023-04-15T03:04:00.938Z,5.0947
2023-04-15T03:05:00.991Z,5.0859
2023-04-15T03:06:01.519Z,5.0616
2023-04-15T03:07:02.046Z,5.0577
2023-04-15T03:08:03.397Z,5.0510
2023-04-15T03:10:03.656Z,5.0535
2023-04-15T03:11:04.163Z,5.0309
2023-04-15T03:12:05.081Z,5.0281
2023-04-15T03:13:05.434Z,5.0250
2023-04-15T03:14:06.182Z,5.0448
2023-04-15T03:15:06.642Z,5.0507
2023-04-15T03:16:07.677Z,5.0722
2023-04-15T03:17:08.435Z,5.0960
2023-04-15T03:18:09.139Z,5.0832
2023-04-15T03:19:10.438Z,5.0737
2023-04-15T03:20:11.405Z,5.0632
2023-04-15T03:21:11.934Z,5.0662
2023-04-15T03:22:12.566Z,5.0486
2023-04-15T03:23:13.198Z,5.0693
2023-04-15T03:24:13.673Z,5.0847
2023-04-15T03:25:14.401Z,5.0788
2023-04-15T03:26:15.182Z,5.0826
2023-04-15T03:27:15.603Z,5.0734
2023-04-15T03:28:16.360Z,5.0721
2023-04-15T03:29:16.737Z,5.0509
2023-04-15T03:30:17.463Z,5.0163
2023-04-15T03:31:18.151Z,5.0176
2023-04-15T03:32:18.989Z,5.0167
2023-04-15T03:33:19.926Z,5.0280
2023-04-15T03:34:20.608Z,5.0245
2023-04-15T03:35:21.210Z,5.0268
2023-04-15T03:36:21.760Z,5.0250
2023-04-15T03:37:22.320Z,5.0262
2023-04-15T03:38:22.818Z,5.0163
2023-04-15T03:39:24.062Z,5.0230
2023-04-15T03:40:24.565Z,5.0331
2023-04-15T03:41:25.243Z,5.0537
2023-04-15T03:42:25.915Z,5.0588
2023-04-15T03:43:26.922Z,5.0895
2023-04-15T03:44:27.633Z,5.1045
2023-04-15T03:45:28.088Z,5.0897
2023-04-15T03:46:29.244Z,5.1061
2023-04-15T03:47:30.018Z,5.1049
2023-04-15T03:48:30.580Z,5.0865
2023-04-15T03:49:31.828Z,5.0886
2023-04-15T03:50:32.397Z,5.1113
2023-04-15T03:51:33.042Z,5.1377
2023-04-15T03:52:33.722Z,5.1260
2023-04-15T03:53:34.473Z,5.1401
2023-04-15T03:54:35.040Z,5.1355
2023-04-15T03:55:35.552Z,5.1497
2023-04-15T03:56:35.992Z,5.2086
2023-04-15T03:57:36.640Z,5.2225
2023-04-15T03:58:37.479Z,5.2317
2023-04-15T03:59:38.554Z,5.2383
2023-04-15T04:00:39.163Z,5.2317
2023-04-15T04:01:39.848Z,5.2243
2023-04-15T04:02:40.227Z,5.2039
2023-04-15T04:03:41.035Z,5.1847
2023-04-15T04:04:41.546Z,5.1768
2023-04-15T04:05:42.288Z,5.1799
2023-04-15T04:06:43.044Z,5.1816
2023-04-15T04:07:44.018Z,5.1880
2023-04-15T04:08:44.544Z,5.1780
2023-04-15T04:09:47.154Z,5.1764
2023-04-15T04:10:46.793Z,5.1681
2023-04-15T04:11:47.389Z,5.1774
2023-04-15T04:12:48.051Z,5.1643
2023-04-15T04:13:48.489Z,5.1528
2023-04-15T04:14:49.152Z,5.1636
2023-04-15T04:15:49.941Z,5.1886
2023-04-15T04:16:50.080Z,5.1663
2023-04-15T04:17:51.105Z,5.1675
2023-04-15T04:18:51.608Z,5.1627
2023-04-15T04:19:52.307Z,5.1754
2023-04-15T04:20:53.031Z,5.1640
2023-04-15T04:21:53.528Z,5.1597
2023-04-15T04:22:54.189Z,5.1952
2023-04-15T04:23:54.866Z,5.2011
2023-04-15T04:24:55.254Z,5.1892
2023-04-15T04:25:55.882Z,5.1845
2023-04-15T04:26:56.527Z,5.1716
2023-04-15T04:27:57.064Z,5.1557
2023-04-15T04:28:57.719Z,5.1541
2023-04-15T04:29:58.173Z,5.1367
2023-04-15T04:30:58.665Z,5.1309
2023-04-15T04:31:59.650Z,5.1362
2023-04-15T04:33:00.505Z,5.1505
2023-04-15T04:34:01.104Z,5.1742
2023-04-15T04:35:01.555Z,5.1976
2023-04-15T04:36:02.378Z,5.2176
2023-04-15T04:37:02.977Z,5.2706
2023-04-15T04:38:03.518Z,5.3042
2023-04-15T04:39:04.483Z,5.2998
2023-04-15T04:40:05.178Z,5.2950
2023-04-15T04:41:05.674Z,5.2940
2023-04-15T04:42:06.249Z,5.2870
2023-04-15T04:43:06.835Z,5.2890
2023-04-15T04:44:07.441Z,5.3012
2023-04-15T04:45:08.222Z,5.3308
2023-04-15T04:47:09.554Z,5.4145
2023-04-15T04:48:10.421Z,5.4132
2023-04-15T04:49:11.397Z,5.4248
2023-04-15T04:50:12.085Z,5.4210
2023-04-15T04:51:12.783Z,5.4176
2023-04-15T04:52:13.350Z,5.3857
2023-04-15T04:53:14.036Z,5.3663
2023-04-15T04:54:14.871Z,5.3486
2023-04-15T04:55:15.800Z,5.3368
2023-04-15T04:56:16.383Z,5.3365
2023-04-15T04:57:16.850Z,5.3307
2023-04-15T04:58:17.530Z,5.3279
2023-04-15T04:59:19.918Z,5.3204
2023-04-15T05:00:20.469Z,5.3060
2023-04-15T05:01:21.277Z,5.3053
2023-04-15T05:02:21.837Z,5.2956
2023-04-15T05:03:22.071Z,5.2986
2023-04-15T05:04:22.037Z,5.3002
2023-04-15T05:05:22.487Z,5.3109
2023-04-15T05:06:23.315Z,5.3109
2023-04-15T05:07:23.995Z,5.3114
2023-04-15T05:08:24.548Z,5.3173
2023-04-15T05:09:25.788Z,5.3227
2023-04-15T05:10:26.436Z,5.3444
2023-04-15T05:11:26.884Z,5.3706
2023-04-15T05:12:27.720Z,5.3660
2023-04-15T05:13:28.126Z,5.3822
2023-04-15T05:14:29.217Z,5.3702
2023-04-15T05:15:29.875Z,5.3864
2023-04-15T05:16:30.529Z,5.3959
2023-04-15T05:17:31.475Z,5.4131
2023-04-15T05:18:32.145Z,5.4201
2023-04-15T05:19:33.198Z,5.4325
2023-04-15T05:20:33.874Z,5.4475
2023-04-15T05:21:34.437Z,5.4499
2023-04-15T05:22:34.922Z,5.4503
2023-04-15T05:23:35.819Z,5.4585
2023-04-15T05:24:36.286Z,5.4436
2023-04-15T05:25:36.418Z,5.4477
2023-04-15T05:26:37.042Z,5.4529
2023-04-15T05:27:37.647Z,5.4561
2023-04-15T05:28:38.517Z,5.4820
2023-04-15T05:29:39.307Z,5.5132
2023-04-15T05:30:39.844Z,5.5397
2023-04-15T05:31:40.740Z,5.5646
2023-04-15T05:32:41.839Z,5.5931
2023-04-15T05:33:42.425Z,5.6202
2023-04-15T05:34:43.267Z,5.6447
2023-04-15T05:35:43.736Z,5.6630
2023-04-15T05:36:44.352Z,5.6782
2023-04-15T05:37:45.077Z,5.7030
2023-04-15T05:38:45.543Z,5.7218
2023-04-15T05:39:46.910Z,5.7222
2023-04-15T05:40:46.603Z,5.7450
2023-04-15T05:41:47.295Z,5.7692
2023-04-15T05:42:47.990Z,5.8051
2023-04-15T05:43:48.436Z,5.8463
2023-04-15T05:44:49.293Z,5.8600
2023-04-15T05:45:50.209Z,5.8561
2023-04-15T05:46:50.759Z,5.8713
2023-04-15T05:47:51.616Z,5.8787
2023-04-15T05:48:53.396Z,5.8926
2023-04-15T05:49:53.361Z,5.9034
2023-04-15T05:50:54.099Z,5.9149
2023-04-15T05:51:54.714Z,5.9281
2023-04-15T05:52:55.412Z,5.9398
2023-04-15T05:53:56.184Z,5.9655
2023-04-15T05:54:56.745Z,5.9990
2023-04-15T05:55:57.487Z,6.0369
2023-04-15T05:56:58.400Z,6.0301
2023-04-15T05:57:58.953Z,6.0163
2023-04-15T05:58:59.800Z,6.0398
2023-04-15T06:00:00.567Z,6.0674
2023-04-15T06:01:01.085Z,6.0854
2023-04-15T06:02:01.852Z,6.1185
2023-04-15T06:03:03.077Z,6.1335
2023-04-15T06:04:03.688Z,6.1420
2023-04-15T06:05:03.792Z,6.1817
2023-04-15T06:06:04.413Z,6.1910
2023-04-15T06:07:05.148Z,6.2041
2023-04-15T06:08:05.842Z,6.2749
2023-04-15T06:09:06.019Z,6.2994
2023-04-15T06:10:06.854Z,6.3607
2023-04-15T06:11:07.335Z,6.4461
2023-04-15T06:12:08.176Z,6.4897
2023-04-15T06:13:08.808Z,6.4974
2023-04-15T06:14:09.373Z,6.5566
2023-04-15T06:15:10.204Z,6.5652
2023-04-15T06:16:11.509Z,6.5985
2023-04-15T06:17:12.392Z,6.6375
2023-04-15T06:18:13.357Z,6.6814
2023-04-15T06:19:15.142Z,6.6389
2023-04-15T06:20:14.482Z,6.6061
2023-04-15T06:21:15.487Z,6.6916
2023-04-15T06:22:16.017Z,6.6677
2023-04-15T06:23:16.870Z,6.7304
2023-04-15T06:24:17.560Z,6.7777
2023-04-15T06:25:18.201Z,6.7900
2023-04-15T06:26:18.911Z,6.8111
2023-04-15T06:27:19.435Z,6.9307
2023-04-15T06:28:19.971Z,6.9474
2023-04-15T06:29:20.907Z,6.9954
2023-04-15T06:30:23.496Z,7.0855
2023-04-15T06:31:22.671Z,7.1273
2023-04-15T06:32:23.730Z,7.2316
2023-04-15T06:33:24.578Z,7.3228
2023-04-15T06:34:25.778Z,7.3288
2023-04-15T06:35:26.815Z,7.3793
2023-04-15T06:36:27.616Z,7.4542
2023-04-15T06:37:28.395Z,7.4857
2023-04-15T06:38:29.460Z,7.4889
2023-04-15T06:39:29.953Z,7.5375
2023-04-15T06:40:30.827Z,7.5472
2023-04-15T06:41:31.440Z,7.4829
2023-04-15T06:42:32.155Z,7.4946
2023-04-15T06:43:32.773Z,7.5041
2023-04-15T06:44:34.029Z,7.4607
2023-04-15T06:45:33.678Z,7.3499
2023-04-15T06:46:34.657Z,7.3999
2023-04-15T06:47:35.465Z,7.4362
2023-04-15T06:48:36.143Z,7.4015
2023-04-15T06:49:36.727Z,7.4323
2023-04-15T06:50:37.443Z,7.3850
2023-04-15T06:51:37.922Z,7.3939
2023-04-15T06:52:38.834Z,7.4599
2023-04-15T06:53:39.579Z,7.4559
2023-04-15T06:54:40.146Z,7.4793
2023-04-15T06:55:41.049Z,7.4002
2023-04-15T06:56:41.873Z,7.4662
2023-04-15T06:57:42.481Z,7.5017
2023-04-15T06:58:43.279Z,7.4608
2023-04-15T06:59:44.335Z,7.5010
2023-04-15T07:00:44.948Z,7.3843
2023-04-15T07:01:46.009Z,7.3702
2023-04-15T07:02:46.121Z,7.3943
2023-04-15T07:03:46.966Z,7.4255
2023-04-15T07:04:47.912Z,7.3801
2023-04-15T07:05:48.461Z,7.4637
2023-04-15T07:06:49.320Z,7.4966
2023-04-15T07:07:49.995Z,7.4879
2023-04-15T07:08:50.738Z,7.4873
2023-04-15T07:09:51.864Z,7.4982
2023-04-15T07:10:52.794Z,7.5471
2023-04-15T07:11:53.781Z,7.6542
2023-04-15T07:12:54.988Z,7.7335
2023-04-15T07:13:55.807Z,7.7541
2023-04-15T07:14:56.686Z,7.7895
2023-04-15T07:15:56.878Z,7.8465
2023-04-15T07:16:58.165Z,7.8808
2023-04-15T07:17:59.805Z,7.8960
2023-04-15T07:19:01.331Z,7.8433
2023-04-15T07:21:01.471Z,7.7788
2023-04-15T07:22:02.368Z,7.8032
2023-04-15T07:23:03.108Z,7.9137
2023-04-15T07:24:03.241Z,7.8961
2023-04-15T07:25:04.262Z,7.8776
2023-04-15T07:26:04.452Z,7.9158
2023-04-15T07:27:05.525Z,7.8145
2023-04-15T07:28:06.289Z,7.8648
2023-04-15T07:29:07.817Z,7.7895
2023-04-15T07:30:08.177Z,7.8164
2023-04-15T07:31:08.997Z,7.9294
2023-04-15T07:32:10.226Z,7.8960
2023-04-15T07:33:10.237Z,7.8807
2023-04-15T07:34:10.980Z,7.8717
2023-04-15T07:35:12.044Z,7.8600
2023-04-15T07:36:12.873Z,7.9316
2023-04-15T07:37:13.915Z,7.9541
2023-04-15T07:38:14.923Z,7.8828
2023-04-15T07:39:15.713Z,7.9012
2023-04-15T07:40:16.852Z,7.8587
2023-04-15T07:41:17.601Z,7.8230
2023-04-15T07:42:18.306Z,7.8601
2023-04-15T07:43:19.014Z,7.8923
2023-04-15T07:44:20.031Z,7.8443
2023-04-15T07:45:20.703Z,7.8605
2023-04-15T07:46:21.023Z,7.8483
2023-04-15T07:47:21.289Z,7.7311
2023-04-15T07:48:21.322Z,7.7452
2023-04-15T07:49:22.441Z,7.7933
2023-04-15T07:50:23.202Z,7.7253
2023-04-15T07:51:24.343Z,7.7095
2023-04-15T07:52:25.200Z,7.7371
2023-04-15T07:53:25.980Z,7.7963
2023-04-15T07:54:26.831Z,7.8014
2023-04-15T07:55:28.428Z,7.7752
2023-04-15T07:56:29.003Z,7.7058
2023-04-15T07:57:29.820Z,7.7514
2023-04-15T07:58:30.876Z,7.7290
2023-04-15T07:59:31.884Z,7.7655
2023-04-15T08:00:33.093Z,7.8031
2023-04-15T08:01:33.960Z,7.8357
2023-04-15T08:02:34.269Z,7.8803
2023-04-15T08:03:34.623Z,7.9036
2023-04-15T08:04:35.886Z,7.9323
2023-04-15T08:05:36.694Z,7.8772
2023-04-15T08:06:37.517Z,7.8571
2023-04-15T08:07:38.124Z,7.8650
2023-04-15T08:08:38.920Z,7.8701
2023-04-15T08:09:39.787Z,7.8688
2023-04-15T08:10:40.430Z,7.9340
2023-04-15T08:11:41.440Z,8.0528
2023-04-15T08:12:42.824Z,8.1870
2023-04-15T08:13:45.027Z,8.1969
2023-04-15T08:14:45.445Z,8.2796
2023-04-15T08:15:46.545Z,8.3669
2023-04-15T08:16:47.818Z,8.3541
2023-04-15T08:17:49.085Z,8.4265
2023-04-15T08:18:50.056Z,8.5025
2023-04-15T08:19:51.225Z,8.4326
2023-04-15T08:20:51.872Z,8.5699
2023-04-15T08:21:52.728Z,8.5834
2023-04-15T08:22:53.901Z,8.5173
2023-04-15T08:23:54.886Z,8.4870
2023-04-15T08:24:55.782Z,8.5300
2023-04-15T08:25:56.059Z,8.5159
2023-04-15T08:26:56.951Z,8.5762
2023-04-15T08:27:57.862Z,8.6674
2023-04-15T08:28:58.690Z,8.8089
2023-04-15T08:29:59.023Z,8.8539
2023-04-15T08:30:59.551Z,8.8957
2023-04-15T08:32:00.785Z,8.8490
2023-04-15T08:33:01.672Z,8.9694
2023-04-15T08:34:02.548Z,9.1149
2023-04-15T08:35:03.344Z,9.1638
2023-04-15T08:36:04.192Z,9.1969
2023-04-15T08:37:05.096Z,9.0051
2023-04-15T08:38:06.018Z,9.0237
2023-04-15T08:39:06.830Z,9.1210
2023-04-15T08:40:07.670Z,9.0245
2023-04-15T08:41:08.426Z,8.9320
2023-04-15T08:42:08.511Z,8.8569
2023-04-15T08:43:09.053Z,9.0066
2023-04-15T08:44:09.550Z,9.1077
2023-04-15T08:45:10.746Z,8.9621
2023-04-15T08:46:11.916Z,8.8522
2023-04-15T08:47:13.086Z,8.7525
2023-04-15T08:48:13.619Z,8.8357
2023-04-15T08:49:14.918Z,8.6832
2023-04-15T08:50:16.090Z,8.7072
2023-04-15T08:52:16.493Z,8.7531
2023-04-15T08:53:17.478Z,8.8491
2023-04-15T08:54:18.295Z,8.9403
2023-04-15T08:55:18.364Z,9.1015
2023-04-15T08:56:18.748Z,9.1474
2023-04-15T08:57:19.206Z,9.1051
2023-04-15T08:58:19.279Z,9.2333
2023-04-15T08:59:20.433Z,9.2480
2023-04-15T09:00:20.830Z,9.1658
2023-04-15T09:01:21.898Z,9.0720
2023-04-15T09:02:23.189Z,9.1772
2023-04-15T09:03:23.894Z,9.1477
2023-04-15T09:04:23.761Z,9.1951
2023-04-15T09:05:24.755Z,9.2274
2023-04-15T09:07:25.652Z,9.3982
2023-04-15T09:08:26.794Z,9.2860
2023-04-15T09:09:27.656Z,9.4053
2023-04-15T09:10:28.707Z,9.3865
2023-04-15T09:11:29.581Z,9.3971
2023-04-15T09:12:30.491Z,9.4374
2023-04-15T09:13:30.734Z,9.3422
2023-04-15T09:14:31.547Z,9.3666
2023-04-15T09:15:32.710Z,9.2436
2023-04-15T09:16:33.919Z,9.2657
2023-04-15T09:17:35.035Z,9.3228
2023-04-15T09:18:35.442Z,9.4594
2023-04-15T09:19:35.392Z,9.4494
2023-04-15T09:20:36.160Z,9.4624
2023-04-15T09:21:37.184Z,9.2826
2023-04-15T09:22:37.474Z,9.4298
2023-04-15T09:24:38.031Z,9.4694
2023-04-15T09:25:38.088Z,9.4141
2023-04-15T09:26:38.955Z,9.3060
2023-04-15T09:27:39.443Z,9.4434
2023-04-15T09:28:39.647Z,9.3840
2023-04-15T09:29:40.781Z,9.5412
2023-04-15T09:30:41.649Z,9.6136
2023-04-15T09:31:41.846Z,9.4794
2023-04-15T09:32:43.293Z,9.6689
2023-04-15T09:34:43.144Z,9.5579
2023-04-15T09:35:44.028Z,9.5879
2023-04-15T09:36:44.827Z,9.5570
2023-04-15T09:37:45.616Z,9.6053
2023-04-15T09:38:46.340Z,9.4729
2023-04-15T09:39:47.151Z,9.4461
2023-04-15T09:40:48.240Z,9.6188
2023-04-15T09:41:49.669Z,9.6843
2023-04-15T09:42:52.441Z,9.6677
2023-04-15T09:43:53.540Z,9.8402
2023-04-15T09:44:53.579Z,9.6405
2023-04-15T09:45:54.533Z,9.5863
2023-04-15T09:46:55.254Z,9.5534
2023-04-15T09:47:57.084Z,9.5295
2023-04-15T09:48:56.909Z,9.5267
2023-04-15T09:49:57.867Z,9.6767
2023-04-15T09:50:57.798Z,9.8243
2023-04-15T09:52:04.469Z,9.9233
2023-04-15T09:52:58.731Z,9.9640
2023-04-15T09:53:59.687Z,10.0498
2023-04-15T09:54:59.627Z,10.0048
2023-04-15T09:56:00.152Z,9.9547
2023-04-15T09:57:01.008Z,10.0543
2023-04-15T09:58:01.758Z,10.0682
2023-04-15T09:59:02.782Z,10.1461
2023-04-15T10:00:03.726Z,10.1957
2023-04-15T10:01:04.905Z,10.1351
2023-04-15T10:02:06.061Z,10.1582
2023-04-15T10:03:06.921Z,10.1853
2023-04-15T10:04:07.459Z,10.2084
2023-04-15T10:05:08.219Z,10.3125
2023-04-15T10:06:08.355Z,10.1629
2023-04-15T10:07:09.479Z,10.2944
2023-04-15T10:08:10.573Z,10.2513
2023-04-15T10:09:11.736Z,10.0268
2023-04-15T10:10:12.752Z,10.2261
2023-04-15T10:11:13.890Z,10.1477
2023-04-15T10:12:15.036Z,9.7866
2023-04-15T10:13:15.834Z,9.6325
2023-04-15T10:14:16.859Z,9.7654
2023-04-15T10:15:17.898Z,9.5514
2023-04-15T10:16:18.695Z,9.4851
2023-04-15T10:17:19.823Z,9.3353
2023-04-15T10:18:20.864Z,9.3369
2023-04-15T10:19:21.720Z,9.3051
2023-04-15T10:20:22.668Z,9.1702
2023-04-15T10:21:23.327Z,9.1842
2023-04-15T10:22:24.433Z,9.1447
2023-04-15T10:23:24.695Z,9.0896
2023-04-15T10:24:25.366Z,8.9637
2023-04-15T10:25:26.571Z,8.9600
2023-04-15T10:26:27.151Z,8.9084
2023-04-15T10:27:27.935Z,8.8491
2023-04-15T10:28:28.700Z,8.8254
2023-04-15T10:29:29.958Z,8.9436
2023-04-15T10:30:31.177Z,8.9362
2023-04-15T10:31:32.468Z,9.0526
2023-04-15T10:32:33.428Z,9.1374
2023-04-15T10:33:34.501Z,9.1612
2023-04-15T10:34:34.714Z,9.2363
2023-04-15T10:35:35.332Z,9.2897
2023-04-15T10:36:36.394Z,9.2732
2023-04-15T10:37:37.060Z,9.3080
2023-04-15T10:38:37.874Z,9.4700
2023-04-15T10:39:39.008Z,9.5637
2023-04-15T10:40:39.585Z,9.7786
2023-04-15T10:41:40.264Z,9.8686
2023-04-15T10:43:51.208Z,10.0000
2023-04-15T10:44:51.408Z,9.9866
2023-04-15T10:45:52.562Z,9.9209
2023-04-15T10:46:53.108Z,9.8674
2023-04-15T10:47:54.452Z,9.7293
2023-04-15T10:48:55.220Z,9.6528
2023-04-15T10:49:56.111Z,9.6468
2023-04-15T10:50:57.069Z,9.5944
2023-04-15T10:51:57.679Z,9.4564
2023-04-15T10:52:57.689Z,9.3294
2023-04-15T10:53:58.787Z,9.3366
2023-04-15T10:54:59.511Z,9.4066
2023-04-15T10:56:00.300Z,9.3582
2023-04-15T10:57:00.929Z,9.4780
2023-04-15T10:58:01.576Z,9.4440
2023-04-15T10:59:02.532Z,9.4678
2023-04-15T11:00:03.764Z,9.4446
2023-04-15T11:01:04.532Z,9.4313
2023-04-15T11:02:04.717Z,9.3626
2023-04-15T11:03:05.356Z,9.4878
2023-04-15T11:04:07.818Z,9.6004
2023-04-15T11:05:08.831Z,9.6775
2023-04-15T11:06:08.726Z,9.7278
2023-04-15T11:07:09.750Z,9.5682
2023-04-15T11:08:10.801Z,9.7470
2023-04-15T11:09:12.474Z,9.7767
2023-04-15T11:11:13.340Z,9.8485
2023-04-15T11:12:13.789Z,9.6949
2023-04-15T11:13:20.036Z,9.6296
2023-04-15T11:14:20.805Z,9.5833
2023-04-15T11:15:21.774Z,9.6468
2023-04-15T11:16:22.910Z,9.5891
2023-04-15T11:17:23.316Z,9.5436
2023-04-15T11:18:23.578Z,9.4375
2023-04-15T11:19:24.694Z,9.4431
2023-04-15T11:20:24.590Z,9.4355
2023-04-15T11:21:41.620Z,9.3332
2023-04-15T11:22:42.788Z,9.2838
2023-04-15T11:23:43.011Z,9.2314
2023-04-15T11:24:43.349Z,9.0534
2023-04-15T11:25:44.252Z,8.9955
2023-04-15T11:26:44.082Z,8.9747
2023-04-15T11:27:44.848Z,8.9154
2023-04-15T11:28:45.611Z,8.8453
2023-04-15T11:29:46.644Z,8.8569
2023-04-15T11:30:47.369Z,8.7976
2023-04-15T11:31:48.384Z,8.7628
2023-04-15T11:32:49.644Z,8.7312
2023-04-15T11:33:50.863Z,8.8210
2023-04-15T11:34:51.662Z,8.8270
2023-04-15T11:35:52.245Z,8.8442
2023-04-15T11:36:53.471Z,8.8628
2023-04-15T11:37:54.212Z,8.9233
2023-04-15T11:38:55.043Z,8.9514
2023-04-15T11:39:55.903Z,8.8789
2023-04-15T11:40:57.270Z,8.9546
2023-04-15T11:41:58.022Z,9.0290
2023-04-15T11:42:58.228Z,9.0591
2023-04-15T11:43:59.296Z,9.0561
2023-04-15T11:44:59.871Z,9.0217
2023-04-15T11:46:01.010Z,9.0584
2023-04-15T11:47:02.044Z,9.0531
2023-04-15T11:48:03.089Z,9.0215
2023-04-15T11:49:03.705Z,9.0248
2023-04-15T11:50:04.556Z,9.0201
2023-04-15T11:51:05.221Z,8.9452
2023-04-15T11:52:05.854Z,8.8749
2023-04-15T11:53:08.384Z,8.8302
2023-04-15T11:54:06.711Z,8.8930
2023-04-15T11:55:07.277Z,8.9876
2023-04-15T11:56:07.914Z,9.0494
2023-04-15T11:57:08.703Z,9.2271
2023-04-15T11:58:09.493Z,9.2875
2023-04-15T11:59:10.184Z,9.3265
2023-04-15T12:00:10.933Z,9.4053
2023-04-15T12:01:11.431Z,9.4244
2023-04-15T12:02:12.218Z,9.4513
2023-04-15T12:03:13.584Z,9.4527
2023-04-15T12:04:14.466Z,9.5472
2023-04-15T12:05:15.785Z,9.5480
2023-04-15T12:06:16.805Z,9.6963
2023-04-15T12:07:17.611Z,9.8056
2023-04-15T12:08:18.202Z,9.8801
2023-04-15T12:09:18.882Z,10.0406
2023-04-15T12:10:19.966Z,10.2537
2023-04-15T12:11:20.656Z,10.2003
2023-04-15T12:12:20.889Z,10.3254
2023-04-15T12:13:21.079Z,10.3471
2023-04-15T12:14:21.378Z,10.2310
2023-04-15T12:15:22.150Z,10.1749
2023-04-15T12:16:22.941Z,10.1726
2023-04-15T12:17:23.347Z,10.0610
2023-04-15T12:18:23.736Z,10.0767
2023-04-15T12:19:24.095Z,10.1263
2023-04-15T12:20:25.312Z,10.0585
2023-04-15T12:21:25.430Z,10.1669
2023-04-15T12:22:26.042Z,10.3456
2023-04-15T12:23:26.105Z,10.3538
2023-04-15T12:24:26.851Z,10.5381
2023-04-15T12:25:27.129Z,10.6601
2023-04-15T12:26:27.605Z,10.5892
2023-04-15T12:27:29.723Z,10.6614
2023-04-15T12:28:28.231Z,10.5811
2023-04-15T12:29:28.387Z,10.6893
2023-04-15T12:30:29.540Z,10.6928
2023-04-15T12:31:29.854Z,10.7139
2023-04-15T12:32:30.324Z,10.4283
2023-04-15T12:33:31.067Z,10.1257
2023-04-15T12:34:31.740Z,10.0981
2023-04-15T12:35:31.525Z,10.1604
2023-04-15T12:36:32.084Z,10.1710
2023-04-15T12:37:33.235Z,10.0808
2023-04-15T12:38:33.701Z,10.1277
2023-04-15T12:39:35.487Z,10.1864
2023-04-15T12:40:34.719Z,10.1179
2023-04-15T12:41:35.323Z,10.1171
2023-04-15T12:42:35.809Z,10.0422
2023-04-15T12:43:36.877Z,10.1114
2023-04-15T12:44:37.227Z,10.1224
2023-04-15T12:45:37.671Z,10.0880